sensor_id;sensor_type;location;lat;lon;timestamp;P1;durP1;ratioP1;P2;durP2;ratioP2
78131;SDS011;67381;47.672;9.380;2023-05-29T00:00:50;8.07;;;3.72;;
78131;SDS011;67381;47.672;9.380;2023-05-29T00:03:18;7.65;;;4.03;;
78131;SDS011;67381;47.672;9.380;2023-05-29T00:05:45;8.90;;;4.57;;
78131;SDS011;67381;47.672;9.380;2023-05-29T00:08:13;8.30;;;4.10;;
78131;SDS011;67381;47.672;9.380;2023-05-29T00:10:40;8.43;;;4.50;;
78131;SDS011;67381;47.672;9.380;2023-05-29T00:13:07;9.48;;;4.30;;
78131;SDS011;67381;47.672;9.380;2023-05-29T00:15:35;10.15;;;4.93;;
78131;SDS011;67381;47.672;9.380;2023-05-29T00:18:02;9.80;;;4.05;;
78131;SDS011;67381;47.672;9.380;2023-05-29T00:20:29;8.05;;;4.30;;
78131;SDS011;67381;47.672;9.380;2023-05-29T00:22:57;11.82;;;4.43;;
78131;SDS011;67381;47.672;9.380;2023-05-29T00:25:24;10.90;;;5.00;;
78131;SDS011;67381;47.672;9.380;2023-05-29T00:27:51;12.15;;;5.25;;
78131;SDS011;67381;47.672;9.380;2023-05-29T00:30:18;8.75;;;4.28;;
78131;SDS011;67381;47.672;9.380;2023-05-29T00:32:46;7.53;;;4.57;;
78131;SDS011;67381;47.672;9.380;2023-05-29T00:35:13;7.93;;;4.00;;
78131;SDS011;67381;47.672;9.380;2023-05-29T00:37:40;7.75;;;4.43;;
78131;SDS011;67381;47.672;9.380;2023-05-29T00:40:08;8.82;;;4.78;;
78131;SDS011;67381;47.672;9.380;2023-05-29T00:42:36;7.18;;;3.90;;
78131;SDS011;67381;47.672;9.380;2023-05-29T00:45:03;9.93;;;4.43;;
78131;SDS011;67381;47.672;9.380;2023-05-29T00:47:31;9.65;;;4.13;;
78131;SDS011;67381;47.672;9.380;2023-05-29T00:49:58;8.50;;;5.13;;
78131;SDS011;67381;47.672;9.380;2023-05-29T00:52:26;9.20;;;4.28;;
78131;SDS011;67381;47.672;9.380;2023-05-29T00:54:54;12.73;;;3.53;;
78131;SDS011;67381;47.672;9.380;2023-05-29T00:57:21;9.15;;;4.00;;
78131;SDS011;67381;47.672;9.380;2023-05-29T00:59:49;8.63;;;4.47;;
78131;SDS011;67381;47.672;9.380;2023-05-29T01:02:17;8.90;;;5.30;;
78131;SDS011;67381;47.672;9.380;2023-05-29T01:04:45;8.85;;;4.53;;
78131;SDS011;67381;47.672;9.380;2023-05-29T01:07:12;8.60;;;3.88;;
78131;SDS011;67381;47.672;9.380;2023-05-29T01:09:41;8.18;;;3.95;;
78131;SDS011;67381;47.672;9.380;2023-05-29T01:15:01;7.38;;;4.18;;
78131;SDS011;67381;47.672;9.380;2023-05-29T01:17:43;11.48;;;5.18;;
78131;SDS011;67381;47.672;9.380;2023-05-29T01:20:24;8.20;;;4.43;;
78131;SDS011;67381;47.672;9.380;2023-05-29T01:26:08;8.32;;;4.22;;
78131;SDS011;67381;47.672;9.380;2023-05-29T01:28:44;8.32;;;4.28;;
78131;SDS011;67381;47.672;9.380;2023-05-29T01:31:17;6.60;;;4.20;;
78131;SDS011;67381;47.672;9.380;2023-05-29T01:33:56;9.35;;;5.15;;
78131;SDS011;67381;47.672;9.380;2023-05-29T01:36:24;11.40;;;4.90;;
78131;SDS011;67381;47.672;9.380;2023-05-29T01:38:53;9.38;;;3.83;;
78131;SDS011;67381;47.672;9.380;2023-05-29T01:41:22;8.55;;;4.85;;
78131;SDS011;67381;47.672;9.380;2023-05-29T01:43:52;9.25;;;4.78;;
78131;SDS011;67381;47.672;9.380;2023-05-29T01:46:19;9.75;;;4.53;;
78131;SDS011;67381;47.672;9.380;2023-05-29T01:48:47;7.75;;;4.13;;
78131;SDS011;67381;47.672;9.380;2023-05-29T01:51:15;7.45;;;4.22;;
78131;SDS011;67381;47.672;9.380;2023-05-29T01:53:43;7.70;;;3.78;;
78131;SDS011;67381;47.672;9.380;2023-05-29T01:56:11;11.10;;;4.85;;
78131;SDS011;67381;47.672;9.380;2023-05-29T01:58:38;11.63;;;4.15;;
78131;SDS011;67381;47.672;9.380;2023-05-29T02:01:06;8.82;;;3.90;;
78131;SDS011;67381;47.672;9.380;2023-05-29T02:03:34;7.22;;;4.20;;
78131;SDS011;67381;47.672;9.380;2023-05-29T02:06:02;7.15;;;3.70;;
78131;SDS011;67381;47.672;9.380;2023-05-29T02:08:29;8.82;;;4.50;;
78131;SDS011;67381;47.672;9.380;2023-05-29T02:10:56;10.68;;;5.25;;
78131;SDS011;67381;47.672;9.380;2023-05-29T02:13:24;9.77;;;4.35;;
78131;SDS011;67381;47.672;9.380;2023-05-29T02:15:51;7.03;;;3.65;;
78131;SDS011;67381;47.672;9.380;2023-05-29T02:18:18;8.38;;;4.25;;
78131;SDS011;67381;47.672;9.380;2023-05-29T02:20:46;8.02;;;4.13;;
78131;SDS011;67381;47.672;9.380;2023-05-29T02:23:13;9.23;;;3.78;;
78131;SDS011;67381;47.672;9.380;2023-05-29T02:25:42;8.95;;;3.90;;
78131;SDS011;67381;47.672;9.380;2023-05-29T02:28:09;8.10;;;4.20;;
78131;SDS011;67381;47.672;9.380;2023-05-29T02:30:36;7.65;;;3.80;;
78131;SDS011;67381;47.672;9.380;2023-05-29T02:33:04;10.63;;;4.97;;
78131;SDS011;67381;47.672;9.380;2023-05-29T02:35:31;8.05;;;4.20;;
78131;SDS011;67381;47.672;9.380;2023-05-29T02:37:58;12.23;;;4.93;;
78131;SDS011;67381;47.672;9.380;2023-05-29T02:40:25;7.88;;;4.07;;
78131;SDS011;67381;47.672;9.380;2023-05-29T02:42:53;10.75;;;4.25;;
78131;SDS011;67381;47.672;9.380;2023-05-29T02:45:20;11.38;;;4.50;;
78131;SDS011;67381;47.672;9.380;2023-05-29T02:47:47;8.93;;;4.43;;
78131;SDS011;67381;47.672;9.380;2023-05-29T02:50:15;10.93;;;4.15;;
78131;SDS011;67381;47.672;9.380;2023-05-29T02:52:42;12.27;;;3.83;;
78131;SDS011;67381;47.672;9.380;2023-05-29T02:55:09;7.05;;;4.22;;
78131;SDS011;67381;47.672;9.380;2023-05-29T02:57:37;7.88;;;4.65;;
78131;SDS011;67381;47.672;9.380;2023-05-29T03:00:04;8.10;;;5.20;;
78131;SDS011;67381;47.672;9.380;2023-05-29T03:02:33;9.32;;;4.97;;
78131;SDS011;67381;47.672;9.380;2023-05-29T03:05:01;11.00;;;4.72;;
78131;SDS011;67381;47.672;9.380;2023-05-29T03:07:30;12.77;;;4.65;;
78131;SDS011;67381;47.672;9.380;2023-05-29T03:09:57;9.18;;;4.13;;
78131;SDS011;67381;47.672;9.380;2023-05-29T03:12:25;10.57;;;4.90;;
78131;SDS011;67381;47.672;9.380;2023-05-29T03:14:54;10.38;;;4.78;;
78131;SDS011;67381;47.672;9.380;2023-05-29T03:17:23;9.63;;;5.03;;
78131;SDS011;67381;47.672;9.380;2023-05-29T03:19:50;8.75;;;4.40;;
78131;SDS011;67381;47.672;9.380;2023-05-29T03:22:18;9.35;;;4.75;;
78131;SDS011;67381;47.672;9.380;2023-05-29T03:24:45;12.18;;;5.47;;
78131;SDS011;67381;47.672;9.380;2023-05-29T03:27:12;9.77;;;4.57;;
78131;SDS011;67381;47.672;9.380;2023-05-29T03:29:39;9.88;;;4.68;;
78131;SDS011;67381;47.672;9.380;2023-05-29T03:32:07;8.05;;;4.80;;
78131;SDS011;67381;47.672;9.380;2023-05-29T03:34:34;8.43;;;4.32;;
78131;SDS011;67381;47.672;9.380;2023-05-29T03:37:01;9.05;;;5.28;;
78131;SDS011;67381;47.672;9.380;2023-05-29T03:39:30;7.80;;;5.05;;
78131;SDS011;67381;47.672;9.380;2023-05-29T03:41:57;12.10;;;4.82;;
78131;SDS011;67381;47.672;9.380;2023-05-29T03:44:24;10.10;;;4.97;;
78131;SDS011;67381;47.672;9.380;2023-05-29T03:46:52;8.45;;;4.25;;
78131;SDS011;67381;47.672;9.380;2023-05-29T03:49:19;8.18;;;4.35;;
78131;SDS011;67381;47.672;9.380;2023-05-29T03:51:46;9.63;;;4.80;;
78131;SDS011;67381;47.672;9.380;2023-05-29T03:54:13;9.45;;;4.70;;
78131;SDS011;67381;47.672;9.380;2023-05-29T03:56:41;7.15;;;3.88;;
78131;SDS011;67381;47.672;9.380;2023-05-29T03:59:08;10.05;;;4.80;;
78131;SDS011;67381;47.672;9.380;2023-05-29T04:01:35;12.05;;;4.88;;
78131;SDS011;67381;47.672;9.380;2023-05-29T04:04:03;11.10;;;4.40;;
78131;SDS011;67381;47.672;9.380;2023-05-29T04:06:30;10.10;;;4.70;;
78131;SDS011;67381;47.672;9.380;2023-05-29T04:08:57;9.82;;;5.22;;
78131;SDS011;67381;47.672;9.380;2023-05-29T04:11:24;11.07;;;5.03;;
78131;SDS011;67381;47.672;9.380;2023-05-29T04:13:52;8.95;;;4.50;;
78131;SDS011;67381;47.672;9.380;2023-05-29T04:16:19;6.75;;;3.97;;
78131;SDS011;67381;47.672;9.380;2023-05-29T04:18:46;9.88;;;4.47;;
78131;SDS011;67381;47.672;9.380;2023-05-29T04:21:14;12.13;;;4.82;;
78131;SDS011;67381;47.672;9.380;2023-05-29T04:23:41;7.15;;;4.28;;
78131;SDS011;67381;47.672;9.380;2023-05-29T04:26:08;10.23;;;4.80;;
78131;SDS011;67381;47.672;9.380;2023-05-29T04:28:37;9.45;;;4.20;;
78131;SDS011;67381;47.672;9.380;2023-05-29T04:31:04;9.20;;;4.82;;
78131;SDS011;67381;47.672;9.380;2023-05-29T04:33:33;10.70;;;4.63;;
78131;SDS011;67381;47.672;9.380;2023-05-29T04:36:03;8.80;;;4.18;;
78131;SDS011;67381;47.672;9.380;2023-05-29T04:38:31;8.63;;;4.32;;
78131;SDS011;67381;47.672;9.380;2023-05-29T04:40:58;9.48;;;4.47;;
78131;SDS011;67381;47.672;9.380;2023-05-29T04:43:25;9.65;;;4.60;;
78131;SDS011;67381;47.672;9.380;2023-05-29T04:45:53;11.65;;;4.45;;
78131;SDS011;67381;47.672;9.380;2023-05-29T04:48:20;8.60;;;3.92;;
78131;SDS011;67381;47.672;9.380;2023-05-29T04:50:47;12.35;;;4.63;;
78131;SDS011;67381;47.672;9.380;2023-05-29T04:53:15;5.93;;;3.65;;
78131;SDS011;67381;47.672;9.380;2023-05-29T04:55:42;9.00;;;5.30;;
78131;SDS011;67381;47.672;9.380;2023-05-29T04:58:10;10.13;;;5.18;;
78131;SDS011;67381;47.672;9.380;2023-05-29T05:00:39;9.88;;;4.05;;
78131;SDS011;67381;47.672;9.380;2023-05-29T05:03:06;12.27;;;5.03;;
78131;SDS011;67381;47.672;9.380;2023-05-29T05:05:33;10.60;;;4.88;;
78131;SDS011;67381;47.672;9.380;2023-05-29T05:08:00;10.88;;;4.82;;
78131;SDS011;67381;47.672;9.380;2023-05-29T05:10:28;8.75;;;4.15;;
78131;SDS011;67381;47.672;9.380;2023-05-29T05:12:55;10.52;;;4.78;;
78131;SDS011;67381;47.672;9.380;2023-05-29T05:15:22;11.35;;;4.90;;
78131;SDS011;67381;47.672;9.380;2023-05-29T05:17:49;9.43;;;4.65;;
78131;SDS011;67381;47.672;9.380;2023-05-29T05:20:16;11.18;;;4.80;;
78131;SDS011;67381;47.672;9.380;2023-05-29T05:22:44;8.10;;;4.13;;
78131;SDS011;67381;47.672;9.380;2023-05-29T05:25:11;9.30;;;4.35;;
78131;SDS011;67381;47.672;9.380;2023-05-29T05:27:38;9.27;;;4.93;;
78131;SDS011;67381;47.672;9.380;2023-05-29T05:30:06;7.80;;;3.67;;
78131;SDS011;67381;47.672;9.380;2023-05-29T05:32:34;11.13;;;4.55;;
78131;SDS011;67381;47.672;9.380;2023-05-29T05:35:02;7.95;;;4.38;;
78131;SDS011;67381;47.672;9.380;2023-05-29T05:37:30;8.55;;;4.53;;
78131;SDS011;67381;47.672;9.380;2023-05-29T05:39:57;8.63;;;5.05;;
78131;SDS011;67381;47.672;9.380;2023-05-29T05:42:27;10.85;;;4.70;;
78131;SDS011;67381;47.672;9.380;2023-05-29T05:44:54;8.27;;;5.03;;
78131;SDS011;67381;47.672;9.380;2023-05-29T05:47:21;12.57;;;4.28;;
78131;SDS011;67381;47.672;9.380;2023-05-29T05:49:48;7.60;;;4.35;;
78131;SDS011;67381;47.672;9.380;2023-05-29T05:52:18;9.60;;;4.22;;
78131;SDS011;67381;47.672;9.380;2023-05-29T05:54:45;9.73;;;4.38;;
78131;SDS011;67381;47.672;9.380;2023-05-29T05:57:13;11.65;;;5.03;;
78131;SDS011;67381;47.672;9.380;2023-05-29T05:59:40;10.52;;;4.88;;
78131;SDS011;67381;47.672;9.380;2023-05-29T06:02:07;9.73;;;4.53;;
78131;SDS011;67381;47.672;9.380;2023-05-29T06:04:35;11.65;;;5.07;;
78131;SDS011;67381;47.672;9.380;2023-05-29T06:07:02;10.40;;;4.78;;
78131;SDS011;67381;47.672;9.380;2023-05-29T06:09:30;11.88;;;5.57;;
78131;SDS011;67381;47.672;9.380;2023-05-29T06:11:57;11.93;;;5.22;;
78131;SDS011;67381;47.672;9.380;2023-05-29T06:14:24;12.00;;;5.00;;
78131;SDS011;67381;47.672;9.380;2023-05-29T06:16:52;11.32;;;4.30;;
78131;SDS011;67381;47.672;9.380;2023-05-29T06:19:20;15.55;;;5.03;;
78131;SDS011;67381;47.672;9.380;2023-05-29T06:21:47;9.05;;;4.85;;
78131;SDS011;67381;47.672;9.380;2023-05-29T06:24:14;12.13;;;4.55;;
78131;SDS011;67381;47.672;9.380;2023-05-29T06:26:42;8.43;;;4.95;;
78131;SDS011;67381;47.672;9.380;2023-05-29T06:29:09;7.55;;;4.45;;
78131;SDS011;67381;47.672;9.380;2023-05-29T06:31:36;11.15;;;4.20;;
78131;SDS011;67381;47.672;9.380;2023-05-29T06:34:04;8.48;;;4.57;;
78131;SDS011;67381;47.672;9.380;2023-05-29T06:36:32;8.35;;;4.45;;
78131;SDS011;67381;47.672;9.380;2023-05-29T06:38:59;10.55;;;4.85;;
78131;SDS011;67381;47.672;9.380;2023-05-29T06:41:27;10.40;;;4.50;;
78131;SDS011;67381;47.672;9.380;2023-05-29T06:43:54;11.77;;;5.45;;
78131;SDS011;67381;47.672;9.380;2023-05-29T06:46:21;8.50;;;5.13;;
78131;SDS011;67381;47.672;9.380;2023-05-29T06:48:48;10.15;;;4.55;;
78131;SDS011;67381;47.672;9.380;2023-05-29T06:51:17;12.15;;;4.32;;
78131;SDS011;67381;47.672;9.380;2023-05-29T06:53:44;10.45;;;4.43;;
78131;SDS011;67381;47.672;9.380;2023-05-29T06:56:12;11.77;;;4.40;;
78131;SDS011;67381;47.672;9.380;2023-05-29T06:58:39;10.73;;;4.07;;
78131;SDS011;67381;47.672;9.380;2023-05-29T07:01:06;10.02;;;5.20;;
78131;SDS011;67381;47.672;9.380;2023-05-29T07:03:53;9.23;;;4.80;;
78131;SDS011;67381;47.672;9.380;2023-05-29T07:06:20;9.10;;;4.13;;
78131;SDS011;67381;47.672;9.380;2023-05-29T07:08:47;8.48;;;4.10;;
78131;SDS011;67381;47.672;9.380;2023-05-29T07:11:14;8.48;;;4.45;;
78131;SDS011;67381;47.672;9.380;2023-05-29T07:13:42;7.07;;;4.07;;
78131;SDS011;67381;47.672;9.380;2023-05-29T07:16:09;9.13;;;4.30;;
78131;SDS011;67381;47.672;9.380;2023-05-29T07:18:43;8.68;;;4.40;;
78131;SDS011;67381;47.672;9.380;2023-05-29T07:21:10;8.43;;;4.30;;
78131;SDS011;67381;47.672;9.380;2023-05-29T07:23:39;8.82;;;4.10;;
78131;SDS011;67381;47.672;9.380;2023-05-29T07:26:06;10.57;;;4.38;;
78131;SDS011;67381;47.672;9.380;2023-05-29T07:28:34;9.02;;;4.45;;
78131;SDS011;67381;47.672;9.380;2023-05-29T07:31:01;8.90;;;4.50;;
78131;SDS011;67381;47.672;9.380;2023-05-29T07:33:28;8.75;;;4.85;;
78131;SDS011;67381;47.672;9.380;2023-05-29T07:35:55;17.80;;;4.38;;
78131;SDS011;67381;47.672;9.380;2023-05-29T07:38:23;6.88;;;4.13;;
78131;SDS011;67381;47.672;9.380;2023-05-29T07:40:50;9.38;;;4.60;;
78131;SDS011;67381;47.672;9.380;2023-05-29T07:43:17;9.25;;;4.43;;
78131;SDS011;67381;47.672;9.380;2023-05-29T07:45:44;7.85;;;4.57;;
78131;SDS011;67381;47.672;9.380;2023-05-29T07:48:12;6.93;;;4.68;;
78131;SDS011;67381;47.672;9.380;2023-05-29T07:50:39;10.25;;;4.57;;
78131;SDS011;67381;47.672;9.380;2023-05-29T07:53:07;8.85;;;4.43;;
78131;SDS011;67381;47.672;9.380;2023-05-29T07:55:34;9.48;;;4.68;;
78131;SDS011;67381;47.672;9.380;2023-05-29T07:58:02;10.57;;;4.70;;
78131;SDS011;67381;47.672;9.380;2023-05-29T08:00:29;9.05;;;4.75;;
78131;SDS011;67381;47.672;9.380;2023-05-29T08:02:57;13.05;;;5.38;;
78131;SDS011;67381;47.672;9.380;2023-05-29T08:05:25;12.23;;;5.60;;
78131;SDS011;67381;47.672;9.380;2023-05-29T08:07:52;11.48;;;4.80;;
78131;SDS011;67381;47.672;9.380;2023-05-29T08:10:19;8.70;;;5.25;;
78131;SDS011;67381;47.672;9.380;2023-05-29T08:12:47;17.33;;;5.78;;
78131;SDS011;67381;47.672;9.380;2023-05-29T08:15:18;11.38;;;5.15;;
78131;SDS011;67381;47.672;9.380;2023-05-29T08:17:46;9.52;;;4.90;;
78131;SDS011;67381;47.672;9.380;2023-05-29T08:20:13;11.90;;;5.30;;
78131;SDS011;67381;47.672;9.380;2023-05-29T08:22:40;13.13;;;5.00;;
78131;SDS011;67381;47.672;9.380;2023-05-29T08:25:08;10.30;;;4.93;;
78131;SDS011;67381;47.672;9.380;2023-05-29T08:27:35;9.02;;;5.10;;
78131;SDS011;67381;47.672;9.380;2023-05-29T08:30:03;10.27;;;4.60;;
78131;SDS011;67381;47.672;9.380;2023-05-29T08:32:30;11.15;;;5.20;;
78131;SDS011;67381;47.672;9.380;2023-05-29T08:34:58;12.27;;;5.70;;
78131;SDS011;67381;47.672;9.380;2023-05-29T08:37:25;10.35;;;5.43;;
78131;SDS011;67381;47.672;9.380;2023-05-29T08:39:52;10.73;;;5.47;;
78131;SDS011;67381;47.672;9.380;2023-05-29T08:42:24;13.95;;;5.72;;
78131;SDS011;67381;47.672;9.380;2023-05-29T08:44:56;13.55;;;5.85;;
78131;SDS011;67381;47.672;9.380;2023-05-29T08:47:26;10.65;;;6.38;;
78131;SDS011;67381;47.672;9.380;2023-05-29T08:49:54;10.55;;;5.78;;
78131;SDS011;67381;47.672;9.380;2023-05-29T08:52:22;10.05;;;5.72;;
78131;SDS011;67381;47.672;9.380;2023-05-29T08:54:54;11.60;;;6.13;;
78131;SDS011;67381;47.672;9.380;2023-05-29T08:57:21;11.25;;;6.50;;
78131;SDS011;67381;47.672;9.380;2023-05-29T08:59:50;12.73;;;6.20;;
78131;SDS011;67381;47.672;9.380;2023-05-29T09:02:18;10.88;;;6.68;;
78131;SDS011;67381;47.672;9.380;2023-05-29T09:04:47;12.93;;;6.15;;
78131;SDS011;67381;47.672;9.380;2023-05-29T09:07:19;14.32;;;6.85;;
78131;SDS011;67381;47.672;9.380;2023-05-29T09:09:47;12.55;;;6.25;;
78131;SDS011;67381;47.672;9.380;2023-05-29T09:12:15;12.90;;;5.82;;
78131;SDS011;67381;47.672;9.380;2023-05-29T09:14:44;14.90;;;6.22;;
78131;SDS011;67381;47.672;9.380;2023-05-29T09:17:12;10.65;;;5.72;;
78131;SDS011;67381;47.672;9.380;2023-05-29T09:19:40;11.15;;;5.97;;
78131;SDS011;67381;47.672;9.380;2023-05-29T09:22:14;7.70;;;4.78;;
78131;SDS011;67381;47.672;9.380;2023-05-29T09:24:42;8.93;;;4.68;;
78131;SDS011;67381;47.672;9.380;2023-05-29T09:27:13;8.93;;;4.30;;
78131;SDS011;67381;47.672;9.380;2023-05-29T09:29:40;9.32;;;4.25;;
78131;SDS011;67381;47.672;9.380;2023-05-29T09:32:09;8.45;;;4.47;;
78131;SDS011;67381;47.672;9.380;2023-05-29T09:34:37;7.97;;;5.10;;
78131;SDS011;67381;47.672;9.380;2023-05-29T09:37:06;14.02;;;4.78;;
78131;SDS011;67381;47.672;9.380;2023-05-29T09:42:18;10.48;;;4.97;;
78131;SDS011;67381;47.672;9.380;2023-05-29T09:44:48;8.00;;;5.43;;
78131;SDS011;67381;47.672;9.380;2023-05-29T09:47:18;9.85;;;4.75;;
78131;SDS011;67381;47.672;9.380;2023-05-29T09:49:45;9.45;;;5.05;;
78131;SDS011;67381;47.672;9.380;2023-05-29T09:52:14;10.45;;;4.45;;
78131;SDS011;67381;47.672;9.380;2023-05-29T09:54:42;15.82;;;5.88;;
78131;SDS011;67381;47.672;9.380;2023-05-29T09:57:13;9.98;;;4.97;;
78131;SDS011;67381;47.672;9.380;2023-05-29T09:59:43;9.38;;;4.90;;
78131;SDS011;67381;47.672;9.380;2023-05-29T10:02:18;10.60;;;4.40;;
78131;SDS011;67381;47.672;9.380;2023-05-29T10:04:46;8.55;;;4.57;;
78131;SDS011;67381;47.672;9.380;2023-05-29T10:09:58;12.32;;;5.22;;
78131;SDS011;67381;47.672;9.380;2023-05-29T10:12:27;8.32;;;4.65;;
78131;SDS011;67381;47.672;9.380;2023-05-29T10:14:56;7.90;;;4.63;;
78131;SDS011;67381;47.672;9.380;2023-05-29T10:20:20;10.30;;;4.68;;
78131;SDS011;67381;47.672;9.380;2023-05-29T10:22:49;6.78;;;4.07;;
78131;SDS011;67381;47.672;9.380;2023-05-29T10:25:19;8.82;;;4.82;;
78131;SDS011;67381;47.672;9.380;2023-05-29T10:27:48;11.15;;;5.68;;
78131;SDS011;67381;47.672;9.380;2023-05-29T10:30:27;9.45;;;4.63;;
78131;SDS011;67381;47.672;9.380;2023-05-29T10:33:07;8.52;;;5.13;;
78131;SDS011;67381;47.672;9.380;2023-05-29T10:38:37;10.85;;;5.18;;
78131;SDS011;67381;47.672;9.380;2023-05-29T10:49:25;8.82;;;4.32;;
78131;SDS011;67381;47.672;9.380;2023-05-29T10:51:53;8.85;;;4.95;;
78131;SDS011;67381;47.672;9.380;2023-05-29T10:54:24;7.20;;;4.50;;
78131;SDS011;67381;47.672;9.380;2023-05-29T10:56:52;8.73;;;4.70;;
78131;SDS011;67381;47.672;9.380;2023-05-29T10:59:23;10.07;;;4.63;;
78131;SDS011;67381;47.672;9.380;2023-05-29T11:01:54;10.10;;;4.13;;
78131;SDS011;67381;47.672;9.380;2023-05-29T11:06:53;7.93;;;4.45;;
78131;SDS011;67381;47.672;9.380;2023-05-29T11:09:27;10.13;;;5.47;;
78131;SDS011;67381;47.672;9.380;2023-05-29T11:15:03;11.93;;;5.10;;
78131;SDS011;67381;47.672;9.380;2023-05-29T11:20:07;7.68;;;4.68;;
78131;SDS011;67381;47.672;9.380;2023-05-29T11:25:19;8.68;;;5.00;;
78131;SDS011;67381;47.672;9.380;2023-05-29T11:27:47;7.78;;;4.45;;
78131;SDS011;67381;47.672;9.380;2023-05-29T11:30:14;10.80;;;5.55;;
78131;SDS011;67381;47.672;9.380;2023-05-29T11:32:42;9.60;;;4.72;;
78131;SDS011;67381;47.672;9.380;2023-05-29T11:35:12;9.45;;;4.30;;
78131;SDS011;67381;47.672;9.380;2023-05-29T11:37:41;12.45;;;4.55;;
78131;SDS011;67381;47.672;9.380;2023-05-29T11:40:13;7.53;;;4.72;;
78131;SDS011;67381;47.672;9.380;2023-05-29T11:42:42;9.68;;;5.40;;
78131;SDS011;67381;47.672;9.380;2023-05-29T11:45:18;8.02;;;4.72;;
78131;SDS011;67381;47.672;9.380;2023-05-29T11:47:57;7.55;;;5.15;;
78131;SDS011;67381;47.672;9.380;2023-05-29T11:50:29;10.55;;;4.88;;
78131;SDS011;67381;47.672;9.380;2023-05-29T11:52:58;9.95;;;4.63;;
78131;SDS011;67381;47.672;9.380;2023-05-29T11:55:26;7.95;;;5.10;;
78131;SDS011;67381;47.672;9.380;2023-05-29T11:57:58;12.65;;;5.93;;
78131;SDS011;67381;47.672;9.380;2023-05-29T12:00:30;7.97;;;4.78;;
78131;SDS011;67381;47.672;9.380;2023-05-29T12:02:59;8.20;;;5.00;;
78131;SDS011;67381;47.672;9.380;2023-05-29T12:05:31;8.88;;;5.10;;
78131;SDS011;67381;47.672;9.380;2023-05-29T12:07:59;8.65;;;4.35;;
78131;SDS011;67381;47.672;9.380;2023-05-29T12:10:31;10.57;;;5.40;;
78131;SDS011;67381;47.672;9.380;2023-05-29T12:12:59;7.15;;;4.90;;
78131;SDS011;67381;47.672;9.380;2023-05-29T12:15:30;8.68;;;5.28;;
78131;SDS011;67381;47.672;9.380;2023-05-29T12:17:57;9.38;;;4.53;;
78131;SDS011;67381;47.672;9.380;2023-05-29T12:20:24;9.32;;;4.53;;
78131;SDS011;67381;47.672;9.380;2023-05-29T12:22:58;7.70;;;5.13;;
78131;SDS011;67381;47.672;9.380;2023-05-29T12:25:27;7.97;;;4.78;;
78131;SDS011;67381;47.672;9.380;2023-05-29T12:27:56;10.32;;;5.03;;
78131;SDS011;67381;47.672;9.380;2023-05-29T12:30:24;7.38;;;4.18;;
78131;SDS011;67381;47.672;9.380;2023-05-29T12:32:57;9.13;;;4.63;;
78131;SDS011;67381;47.672;9.380;2023-05-29T12:35:27;14.27;;;5.18;;
78131;SDS011;67381;47.672;9.380;2023-05-29T12:37:56;6.55;;;4.60;;
78131;SDS011;67381;47.672;9.380;2023-05-29T12:40:24;7.00;;;4.53;;
78131;SDS011;67381;47.672;9.380;2023-05-29T12:42:56;9.77;;;4.53;;
78131;SDS011;67381;47.672;9.380;2023-05-29T12:45:26;10.25;;;4.78;;
78131;SDS011;67381;47.672;9.380;2023-05-29T12:47:55;7.53;;;4.28;;
78131;SDS011;67381;47.672;9.380;2023-05-29T12:52:55;6.35;;;4.03;;
78131;SDS011;67381;47.672;9.380;2023-05-29T12:55:22;6.53;;;4.35;;
78131;SDS011;67381;47.672;9.380;2023-05-29T12:57:50;8.32;;;4.30;;
78131;SDS011;67381;47.672;9.380;2023-05-29T13:00:17;10.10;;;4.88;;
78131;SDS011;67381;47.672;9.380;2023-05-29T13:02:46;6.47;;;3.85;;
78131;SDS011;67381;47.672;9.380;2023-05-29T13:05:15;6.20;;;3.88;;
78131;SDS011;67381;47.672;9.380;2023-05-29T13:07:43;7.47;;;4.22;;
78131;SDS011;67381;47.672;9.380;2023-05-29T13:10:10;7.35;;;3.67;;
78131;SDS011;67381;47.672;9.380;2023-05-29T13:12:37;6.05;;;4.00;;
78131;SDS011;67381;47.672;9.380;2023-05-29T13:15:05;5.80;;;3.28;;
78131;SDS011;67381;47.672;9.380;2023-05-29T13:17:33;6.60;;;4.20;;
78131;SDS011;67381;47.672;9.380;2023-05-29T13:20:00;6.57;;;4.22;;
78131;SDS011;67381;47.672;9.380;2023-05-29T13:22:28;8.27;;;4.10;;
78131;SDS011;67381;47.672;9.380;2023-05-29T13:24:58;7.32;;;4.47;;
78131;SDS011;67381;47.672;9.380;2023-05-29T13:27:26;7.85;;;4.53;;
78131;SDS011;67381;47.672;9.380;2023-05-29T13:29:53;6.80;;;3.85;;
78131;SDS011;67381;47.672;9.380;2023-05-29T13:32:22;6.38;;;3.85;;
78131;SDS011;67381;47.672;9.380;2023-05-29T13:34:49;7.47;;;3.92;;
78131;SDS011;67381;47.672;9.380;2023-05-29T13:37:16;6.57;;;4.00;;
78131;SDS011;67381;47.672;9.380;2023-05-29T13:39:44;6.32;;;4.20;;
78131;SDS011;67381;47.672;9.380;2023-05-29T13:42:11;10.05;;;4.68;;
78131;SDS011;67381;47.672;9.380;2023-05-29T13:44:39;9.43;;;4.45;;
78131;SDS011;67381;47.672;9.380;2023-05-29T13:47:07;7.72;;;4.20;;
78131;SDS011;67381;47.672;9.380;2023-05-29T13:49:35;6.47;;;4.43;;
78131;SDS011;67381;47.672;9.380;2023-05-29T13:52:02;6.28;;;4.03;;
78131;SDS011;67381;47.672;9.380;2023-05-29T13:54:30;6.75;;;3.63;;
78131;SDS011;67381;47.672;9.380;2023-05-29T13:57:02;5.68;;;3.92;;
78131;SDS011;67381;47.672;9.380;2023-05-29T13:59:30;6.93;;;4.68;;
78131;SDS011;67381;47.672;9.380;2023-05-29T14:01:58;8.02;;;4.05;;
78131;SDS011;67381;47.672;9.380;2023-05-29T14:04:25;6.75;;;3.95;;
78131;SDS011;67381;47.672;9.380;2023-05-29T14:06:53;9.85;;;4.20;;
78131;SDS011;67381;47.672;9.380;2023-05-29T14:09:21;6.43;;;3.72;;
78131;SDS011;67381;47.672;9.380;2023-05-29T14:11:55;6.75;;;4.00;;
78131;SDS011;67381;47.672;9.380;2023-05-29T14:14:24;6.75;;;3.55;;
78131;SDS011;67381;47.672;9.380;2023-05-29T14:16:52;6.10;;;3.95;;
78131;SDS011;67381;47.672;9.380;2023-05-29T14:19:21;7.05;;;4.53;;
78131;SDS011;67381;47.672;9.380;2023-05-29T14:21:49;6.95;;;3.83;;
78131;SDS011;67381;47.672;9.380;2023-05-29T14:24:16;4.80;;;3.47;;
78131;SDS011;67381;47.672;9.380;2023-05-29T14:26:44;10.05;;;3.95;;
78131;SDS011;67381;47.672;9.380;2023-05-29T14:29:14;6.40;;;3.70;;
78131;SDS011;67381;47.672;9.380;2023-05-29T14:31:42;6.20;;;3.47;;
78131;SDS011;67381;47.672;9.380;2023-05-29T14:34:11;8.23;;;3.85;;
78131;SDS011;67381;47.672;9.380;2023-05-29T14:36:38;6.78;;;3.70;;
78131;SDS011;67381;47.672;9.380;2023-05-29T14:39:07;6.07;;;3.70;;
78131;SDS011;67381;47.672;9.380;2023-05-29T14:41:34;6.00;;;3.58;;
78131;SDS011;67381;47.672;9.380;2023-05-29T14:44:02;6.50;;;3.72;;
78131;SDS011;67381;47.672;9.380;2023-05-29T14:46:30;7.97;;;3.80;;
78131;SDS011;67381;47.672;9.380;2023-05-29T14:48:59;5.65;;;3.55;;
78131;SDS011;67381;47.672;9.380;2023-05-29T14:51:27;6.00;;;3.63;;
78131;SDS011;67381;47.672;9.380;2023-05-29T14:53:54;6.88;;;3.83;;
78131;SDS011;67381;47.672;9.380;2023-05-29T14:56:22;5.55;;;3.13;;
78131;SDS011;67381;47.672;9.380;2023-05-29T14:58:49;7.75;;;3.75;;
78131;SDS011;67381;47.672;9.380;2023-05-29T15:01:17;7.65;;;3.60;;
78131;SDS011;67381;47.672;9.380;2023-05-29T15:03:44;7.03;;;4.07;;
78131;SDS011;67381;47.672;9.380;2023-05-29T15:06:12;5.72;;;3.63;;
78131;SDS011;67381;47.672;9.380;2023-05-29T15:08:40;7.97;;;3.90;;
78131;SDS011;67381;47.672;9.380;2023-05-29T15:11:09;7.22;;;3.30;;
78131;SDS011;67381;47.672;9.380;2023-05-29T15:13:38;7.38;;;3.90;;
78131;SDS011;67381;47.672;9.380;2023-05-29T15:16:06;6.30;;;3.45;;
78131;SDS011;67381;47.672;9.380;2023-05-29T15:18:33;8.27;;;4.05;;
78131;SDS011;67381;47.672;9.380;2023-05-29T15:21:01;5.68;;;3.42;;
78131;SDS011;67381;47.672;9.380;2023-05-29T15:23:29;6.85;;;3.60;;
78131;SDS011;67381;47.672;9.380;2023-05-29T15:25:56;5.72;;;3.80;;
78131;SDS011;67381;47.672;9.380;2023-05-29T15:28:23;7.38;;;3.33;;